オクラホマシティ の空港の天気 - METARとTAF

オクラホマシティ空港 ( KOKC / OKC ) - アメリカ オクラホマ州オクラホマシティ
飛行場実況気象(Metar)
観測時間01/29 00:52 CST (01/29 06:52 UTC)
風向・風速南 3m/s
視程10km以上
天気現象
なし
気温-3.3℃
湿度65%
気圧1027.7hPa
METARKOKC 290652Z 18005KT 10SM CLR M03/M09 A3033 RMK AO2 SLP277 T10331089
過去の天気等 Google飛行場航空写真 Wunderground天気予報

過去48時間のMETAR

飛行場予報(TAF)
発表時間: 1/28 23:20 CST (1/29 05:20 UTC)
予報対象時間: 29日0時 CST ~ 30日0時 CST
風向・風速南 2m/s
視程10km以上
なし
29日7時 CST から
風向・風速南西 4m/s
視程10km以上
なし
29日12時 CST から
風向・風速西南西 7m/s 瞬間風速 10m/s
視程10km以上
なし
29日18時 CST から
風向・風速南西 4m/s
視程10km以上
なし
KOKC 290520Z 2906/3006 19004KT P6SM SKC
FM291300 22008KT P6SM SKC
FM291800 24014G19KT P6SM SKC
FM300000 22008KT P6SM SKC